sensor_id;sensor_type;location;lat;lon;timestamp;temperature;humidity
23540;DHT22;11947;50.810;4.394;2023-06-10T00:01:58;22.30;97.90
23540;DHT22;11947;50.810;4.394;2023-06-10T00:04:28;22.30;97.90
23540;DHT22;11947;50.810;4.394;2023-06-10T00:06:53;22.20;97.60
23540;DHT22;11947;50.810;4.394;2023-06-10T00:09:19;22.20;97.30
23540;DHT22;11947;50.810;4.394;2023-06-10T00:11:46;22.00;97.50
23540;DHT22;11947;50.810;4.394;2023-06-10T00:14:12;21.90;97.90
23540;DHT22;11947;50.810;4.394;2023-06-10T00:16:38;21.90;97.80
23540;DHT22;11947;50.810;4.394;2023-06-10T00:19:04;21.80;98.10
23540;DHT22;11947;50.810;4.394;2023-06-10T00:21:31;21.90;98.90
23540;DHT22;11947;50.810;4.394;2023-06-10T00:24:04;21.90;98.60
23540;DHT22;11947;50.810;4.394;2023-06-10T00:26:31;22.00;98.90
23540;DHT22;11947;50.810;4.394;2023-06-10T00:28:57;21.90;99.10
23540;DHT22;11947;50.810;4.394;2023-06-10T00:31:22;21.90;99.40
23540;DHT22;11947;50.810;4.394;2023-06-10T00:33:48;21.90;99.30
23540;DHT22;11947;50.810;4.394;2023-06-10T00:36:14;21.70;99.40
23540;DHT22;11947;50.810;4.394;2023-06-10T00:38:40;21.70;99.90
23540;DHT22;11947;50.810;4.394;2023-06-10T00:41:08;21.60;98.90
23540;DHT22;11947;50.810;4.394;2023-06-10T00:43:33;21.50;99.80
23540;DHT22;11947;50.810;4.394;2023-06-10T00:45:59;21.40;99.20
23540;DHT22;11947;50.810;4.394;2023-06-10T00:48:25;21.30;99.40
23540;DHT22;11947;50.810;4.394;2023-06-10T00:50:51;21.20;99.60
23540;DHT22;11947;50.810;4.394;2023-06-10T00:53:17;21.10;99.80
23540;DHT22;11947;50.810;4.394;2023-06-10T00:55:43;21.10;99.80
23540;DHT22;11947;50.810;4.394;2023-06-10T00:58:09;21.00;99.90
23540;DHT22;11947;50.810;4.394;2023-06-10T01:00:35;21.00;99.80
23540;DHT22;11947;50.810;4.394;2023-06-10T01:03:01;21.00;99.80
23540;DHT22;11947;50.810;4.394;2023-06-10T01:05:27;21.00;99.90
23540;DHT22;11947;50.810;4.394;2023-06-10T01:10:57;21.10;99.60
23540;DHT22;11947;50.810;4.394;2023-06-10T01:13:25;21.00;99.70
23540;DHT22;11947;50.810;4.394;2023-06-10T01:15:57;21.20;99.90
23540;DHT22;11947;50.810;4.394;2023-06-10T01:18:22;21.30;99.50
23540;DHT22;11947;50.810;4.394;2023-06-10T01:20:49;21.20;99.90
23540;DHT22;11947;50.810;4.394;2023-06-10T01:23:15;21.20;99.90
23540;DHT22;11947;50.810;4.394;2023-06-10T01:25:49;21.20;99.90
23540;DHT22;11947;50.810;4.394;2023-06-10T01:33:30;21.30;99.90
23540;DHT22;11947;50.810;4.394;2023-06-10T01:36:01;21.30;99.90
23540;DHT22;11947;50.810;4.394;2023-06-10T01:38:32;21.10;99.90
23540;DHT22;11947;50.810;4.394;2023-06-10T01:40:59;21.20;99.90
23540;DHT22;11947;50.810;4.394;2023-06-10T01:43:25;21.20;99.90
23540;DHT22;11947;50.810;4.394;2023-06-10T01:45:51;21.10;99.90
23540;DHT22;11947;50.810;4.394;2023-06-10T01:48:19;21.10;99.90
23540;DHT22;11947;50.810;4.394;2023-06-10T01:50:44;21.10;99.90
23540;DHT22;11947;50.810;4.394;2023-06-10T01:53:10;21.00;99.90
23540;DHT22;11947;50.810;4.394;2023-06-10T01:55:36;20.90;99.90
23540;DHT22;11947;50.810;4.394;2023-06-10T01:58:01;20.80;99.90
23540;DHT22;11947;50.810;4.394;2023-06-10T02:00:27;20.80;99.90
23540;DHT22;11947;50.810;4.394;2023-06-10T02:02:53;20.80;99.90
23540;DHT22;11947;50.810;4.394;2023-06-10T02:05:19;20.80;99.90
23540;DHT22;11947;50.810;4.394;2023-06-10T02:07:44;20.70;99.90
23540;DHT22;11947;50.810;4.394;2023-06-10T02:10:10;20.60;99.90
23540;DHT22;11947;50.810;4.394;2023-06-10T02:12:36;20.60;99.90
23540;DHT22;11947;50.810;4.394;2023-06-10T02:15:01;20.50;99.90
23540;DHT22;11947;50.810;4.394;2023-06-10T02:17:27;20.40;99.90
23540;DHT22;11947;50.810;4.394;2023-06-10T02:19:53;20.40;99.90
23540;DHT22;11947;50.810;4.394;2023-06-10T02:22:20;20.40;99.90
23540;DHT22;11947;50.810;4.394;2023-06-10T02:24:47;20.40;99.90
23540;DHT22;11947;50.810;4.394;2023-06-10T02:27:12;20.30;99.90
23540;DHT22;11947;50.810;4.394;2023-06-10T02:29:38;20.30;99.90
23540;DHT22;11947;50.810;4.394;2023-06-10T02:32:04;20.20;99.90
23540;DHT22;11947;50.810;4.394;2023-06-10T02:34:30;20.30;99.90
23540;DHT22;11947;50.810;4.394;2023-06-10T02:36:56;20.20;99.90
23540;DHT22;11947;50.810;4.394;2023-06-10T02:39:22;20.20;99.90
23540;DHT22;11947;50.810;4.394;2023-06-10T02:41:47;20.10;99.90
23540;DHT22;11947;50.810;4.394;2023-06-10T02:44:13;20.10;99.90
23540;DHT22;11947;50.810;4.394;2023-06-10T02:46:39;20.10;99.90
23540;DHT22;11947;50.810;4.394;2023-06-10T02:49:04;20.00;99.90
23540;DHT22;11947;50.810;4.394;2023-06-10T02:51:30;20.00;99.90
23540;DHT22;11947;50.810;4.394;2023-06-10T02:53:55;20.00;99.90
23540;DHT22;11947;50.810;4.394;2023-06-10T02:56:21;19.90;99.90
23540;DHT22;11947;50.810;4.394;2023-06-10T02:58:47;19.90;99.90
23540;DHT22;11947;50.810;4.394;2023-06-10T03:01:15;19.90;99.90
23540;DHT22;11947;50.810;4.394;2023-06-10T03:03:40;19.90;99.90
23540;DHT22;11947;50.810;4.394;2023-06-10T03:06:10;19.80;99.90
23540;DHT22;11947;50.810;4.394;2023-06-10T03:08:36;19.90;99.90
23540;DHT22;11947;50.810;4.394;2023-06-10T03:11:02;19.90;99.90
23540;DHT22;11947;50.810;4.394;2023-06-10T03:13:27;19.90;99.90
23540;DHT22;11947;50.810;4.394;2023-06-10T03:15:53;19.80;99.90
23540;DHT22;11947;50.810;4.394;2023-06-10T03:18:19;19.80;99.90
23540;DHT22;11947;50.810;4.394;2023-06-10T03:20:45;19.80;99.90
23540;DHT22;11947;50.810;4.394;2023-06-10T03:23:11;19.70;99.90
23540;DHT22;11947;50.810;4.394;2023-06-10T03:25:37;19.70;99.90
23540;DHT22;11947;50.810;4.394;2023-06-10T03:28:02;19.70;99.90
23540;DHT22;11947;50.810;4.394;2023-06-10T03:30:28;19.70;99.90
23540;DHT22;11947;50.810;4.394;2023-06-10T03:32:54;19.70;99.90
23540;DHT22;11947;50.810;4.394;2023-06-10T03:35:19;19.60;99.90
23540;DHT22;11947;50.810;4.394;2023-06-10T03:37:46;19.70;99.90
23540;DHT22;11947;50.810;4.394;2023-06-10T03:40:11;19.70;99.90
23540;DHT22;11947;50.810;4.394;2023-06-10T03:42:37;19.70;99.90
23540;DHT22;11947;50.810;4.394;2023-06-10T03:45:03;19.80;99.90
23540;DHT22;11947;50.810;4.394;2023-06-10T03:47:37;19.80;99.90
23540;DHT22;11947;50.810;4.394;2023-06-10T03:50:06;19.80;99.90
23540;DHT22;11947;50.810;4.394;2023-06-10T03:52:32;19.80;99.90
23540;DHT22;11947;50.810;4.394;2023-06-10T03:54:57;19.90;99.90
23540;DHT22;11947;50.810;4.394;2023-06-10T03:57:23;19.80;99.90
23540;DHT22;11947;50.810;4.394;2023-06-10T03:59:49;19.80;99.90
23540;DHT22;11947;50.810;4.394;2023-06-10T04:02:14;19.80;99.90
23540;DHT22;11947;50.810;4.394;2023-06-10T04:04:40;19.80;99.90
23540;DHT22;11947;50.810;4.394;2023-06-10T04:07:06;19.90;99.90
23540;DHT22;11947;50.810;4.394;2023-06-10T04:09:33;19.90;99.90
23540;DHT22;11947;50.810;4.394;2023-06-10T04:11:59;19.90;99.90
23540;DHT22;11947;50.810;4.394;2023-06-10T04:14:24;19.90;99.90
23540;DHT22;11947;50.810;4.394;2023-06-10T04:16:50;19.90;99.90
23540;DHT22;11947;50.810;4.394;2023-06-10T04:19:16;19.90;99.90
23540;DHT22;11947;50.810;4.394;2023-06-10T04:21:42;19.90;99.90
23540;DHT22;11947;50.810;4.394;2023-06-10T04:24:08;19.80;99.90
23540;DHT22;11947;50.810;4.394;2023-06-10T04:26:35;19.90;99.90
23540;DHT22;11947;50.810;4.394;2023-06-10T04:29:01;19.80;99.90
23540;DHT22;11947;50.810;4.394;2023-06-10T04:31:27;19.80;99.90
23540;DHT22;11947;50.810;4.394;2023-06-10T04:33:53;19.70;99.90
23540;DHT22;11947;50.810;4.394;2023-06-10T04:36:19;19.70;99.90
23540;DHT22;11947;50.810;4.394;2023-06-10T04:38:44;19.60;99.90
23540;DHT22;11947;50.810;4.394;2023-06-10T04:41:10;19.70;99.90
23540;DHT22;11947;50.810;4.394;2023-06-10T04:43:35;19.70;99.90
23540;DHT22;11947;50.810;4.394;2023-06-10T04:46:02;19.70;99.90
23540;DHT22;11947;50.810;4.394;2023-06-10T04:48:27;19.80;99.90
23540;DHT22;11947;50.810;4.394;2023-06-10T04:50:53;19.90;99.90
23540;DHT22;11947;50.810;4.394;2023-06-10T04:53:19;20.00;99.90
23540;DHT22;11947;50.810;4.394;2023-06-10T04:55:46;20.10;99.90
23540;DHT22;11947;50.810;4.394;2023-06-10T04:58:11;20.20;99.90
23540;DHT22;11947;50.810;4.394;2023-06-10T05:00:37;20.10;99.90
23540;DHT22;11947;50.810;4.394;2023-06-10T05:03:03;20.10;99.90
23540;DHT22;11947;50.810;4.394;2023-06-10T05:05:28;20.10;99.90
23540;DHT22;11947;50.810;4.394;2023-06-10T05:07:54;20.10;99.90
23540;DHT22;11947;50.810;4.394;2023-06-10T05:10:19;20.20;99.90
23540;DHT22;11947;50.810;4.394;2023-06-10T05:12:45;20.20;99.90
23540;DHT22;11947;50.810;4.394;2023-06-10T05:15:11;20.20;99.90
23540;DHT22;11947;50.810;4.394;2023-06-10T05:17:37;20.10;99.90
23540;DHT22;11947;50.810;4.394;2023-06-10T05:20:03;20.00;99.90
23540;DHT22;11947;50.810;4.394;2023-06-10T05:22:29;20.10;99.90
23540;DHT22;11947;50.810;4.394;2023-06-10T05:24:54;20.30;99.90
23540;DHT22;11947;50.810;4.394;2023-06-10T05:27:20;20.20;99.90
23540;DHT22;11947;50.810;4.394;2023-06-10T05:29:47;20.30;99.90
23540;DHT22;11947;50.810;4.394;2023-06-10T05:32:13;20.40;99.90
23540;DHT22;11947;50.810;4.394;2023-06-10T05:34:38;20.60;99.90
23540;DHT22;11947;50.810;4.394;2023-06-10T05:37:04;20.70;99.90
23540;DHT22;11947;50.810;4.394;2023-06-10T05:39:30;20.80;99.90
23540;DHT22;11947;50.810;4.394;2023-06-10T05:41:56;21.00;99.90
23540;DHT22;11947;50.810;4.394;2023-06-10T05:44:24;21.10;99.90
23540;DHT22;11947;50.810;4.394;2023-06-10T05:46:50;21.20;99.90
23540;DHT22;11947;50.810;4.394;2023-06-10T05:49:16;21.30;99.90
23540;DHT22;11947;50.810;4.394;2023-06-10T05:51:41;21.50;99.90
23540;DHT22;11947;50.810;4.394;2023-06-10T05:54:07;21.60;99.90
23540;DHT22;11947;50.810;4.394;2023-06-10T05:56:33;21.70;99.90
23540;DHT22;11947;50.810;4.394;2023-06-10T05:58:58;21.80;99.90
23540;DHT22;11947;50.810;4.394;2023-06-10T06:01:24;21.80;99.90
23540;DHT22;11947;50.810;4.394;2023-06-10T06:03:50;21.90;99.90
23540;DHT22;11947;50.810;4.394;2023-06-10T06:06:15;22.00;99.90
23540;DHT22;11947;50.810;4.394;2023-06-10T06:08:41;22.10;99.90
23540;DHT22;11947;50.810;4.394;2023-06-10T06:11:07;22.30;99.90
23540;DHT22;11947;50.810;4.394;2023-06-10T06:13:33;22.40;99.90
23540;DHT22;11947;50.810;4.394;2023-06-10T06:15:58;22.60;99.90
23540;DHT22;11947;50.810;4.394;2023-06-10T06:18:24;22.80;99.90
23540;DHT22;11947;50.810;4.394;2023-06-10T06:20:50;22.90;99.90
23540;DHT22;11947;50.810;4.394;2023-06-10T06:23:15;23.00;99.90
23540;DHT22;11947;50.810;4.394;2023-06-10T06:25:41;23.10;99.90
23540;DHT22;11947;50.810;4.394;2023-06-10T06:28:07;23.30;99.90
23540;DHT22;11947;50.810;4.394;2023-06-10T06:30:34;23.60;99.90
23540;DHT22;11947;50.810;4.394;2023-06-10T06:33:02;23.90;99.90
23540;DHT22;11947;50.810;4.394;2023-06-10T06:35:31;24.10;99.90
23540;DHT22;11947;50.810;4.394;2023-06-10T06:37:57;24.40;99.90
23540;DHT22;11947;50.810;4.394;2023-06-10T06:40:24;24.70;99.90
23540;DHT22;11947;50.810;4.394;2023-06-10T06:42:49;25.00;99.90
23540;DHT22;11947;50.810;4.394;2023-06-10T06:45:15;25.30;99.90
23540;DHT22;11947;50.810;4.394;2023-06-10T06:47:41;25.70;99.90
23540;DHT22;11947;50.810;4.394;2023-06-10T06:50:06;25.50;98.70
23540;DHT22;11947;50.810;4.394;2023-06-10T06:52:32;25.30;98.70
23540;DHT22;11947;50.810;4.394;2023-06-10T06:54:58;25.20;99.90
23540;DHT22;11947;50.810;4.394;2023-06-10T06:57:23;25.50;99.90
23540;DHT22;11947;50.810;4.394;2023-06-10T06:59:49;25.70;98.90
23540;DHT22;11947;50.810;4.394;2023-06-10T07:02:14;25.90;99.10
23540;DHT22;11947;50.810;4.394;2023-06-10T07:04:40;25.90;99.40
23540;DHT22;11947;50.810;4.394;2023-06-10T07:07:07;26.00;98.60
23540;DHT22;11947;50.810;4.394;2023-06-10T07:09:37;26.20;97.30
23540;DHT22;11947;50.810;4.394;2023-06-10T07:12:03;26.30;97.80
23540;DHT22;11947;50.810;4.394;2023-06-10T07:14:29;26.40;97.20
23540;DHT22;11947;50.810;4.394;2023-06-10T07:16:55;26.50;97.20
23540;DHT22;11947;50.810;4.394;2023-06-10T07:19:21;26.40;97.40
23540;DHT22;11947;50.810;4.394;2023-06-10T07:21:46;26.50;96.60
23540;DHT22;11947;50.810;4.394;2023-06-10T07:24:13;26.50;97.10
23540;DHT22;11947;50.810;4.394;2023-06-10T07:26:38;26.60;97.00
23540;DHT22;11947;50.810;4.394;2023-06-10T07:29:04;26.60;95.90
23540;DHT22;11947;50.810;4.394;2023-06-10T07:31:30;26.60;96.20
23540;DHT22;11947;50.810;4.394;2023-06-10T07:33:55;27.00;97.40
23540;DHT22;11947;50.810;4.394;2023-06-10T07:36:21;27.00;95.80
23540;DHT22;11947;50.810;4.394;2023-06-10T07:38:46;27.10;95.50
23540;DHT22;11947;50.810;4.394;2023-06-10T07:41:12;27.30;95.60
23540;DHT22;11947;50.810;4.394;2023-06-10T07:43:38;27.50;95.90
23540;DHT22;11947;50.810;4.394;2023-06-10T07:46:04;27.80;96.10
23540;DHT22;11947;50.810;4.394;2023-06-10T07:48:31;27.70;94.00
23540;DHT22;11947;50.810;4.394;2023-06-10T07:50:56;27.40;94.60
23540;DHT22;11947;50.810;4.394;2023-06-10T07:53:22;27.30;94.00
23540;DHT22;11947;50.810;4.394;2023-06-10T07:55:47;27.50;94.40
23540;DHT22;11947;50.810;4.394;2023-06-10T07:58:13;27.50;94.30
23540;DHT22;11947;50.810;4.394;2023-06-10T08:00:39;27.80;94.50
23540;DHT22;11947;50.810;4.394;2023-06-10T08:03:04;28.00;93.70
23540;DHT22;11947;50.810;4.394;2023-06-10T08:05:30;28.10;92.90
23540;DHT22;11947;50.810;4.394;2023-06-10T08:07:56;28.00;93.90
23540;DHT22;11947;50.810;4.394;2023-06-10T08:10:21;27.80;93.70
23540;DHT22;11947;50.810;4.394;2023-06-10T08:12:47;27.80;92.70
23540;DHT22;11947;50.810;4.394;2023-06-10T08:15:12;27.70;93.40
23540;DHT22;11947;50.810;4.394;2023-06-10T08:17:38;27.70;93.40
23540;DHT22;11947;50.810;4.394;2023-06-10T08:20:06;27.80;93.80
23540;DHT22;11947;50.810;4.394;2023-06-10T08:22:32;28.00;94.40
23540;DHT22;11947;50.810;4.394;2023-06-10T08:24:59;28.10;93.40
23540;DHT22;11947;50.810;4.394;2023-06-10T08:27:24;28.30;93.50
23540;DHT22;11947;50.810;4.394;2023-06-10T08:29:50;28.60;93.90
23540;DHT22;11947;50.810;4.394;2023-06-10T08:32:16;28.90;94.80
23540;DHT22;11947;50.810;4.394;2023-06-10T08:34:41;29.10;92.80
23540;DHT22;11947;50.810;4.394;2023-06-10T08:37:07;29.10;91.80
23540;DHT22;11947;50.810;4.394;2023-06-10T08:39:32;29.10;92.10
23540;DHT22;11947;50.810;4.394;2023-06-10T08:42:33;29.10;91.80
23540;DHT22;11947;50.810;4.394;2023-06-10T08:45:02;29.00;91.80
23540;DHT22;11947;50.810;4.394;2023-06-10T08:47:30;29.30;92.30
23540;DHT22;11947;50.810;4.394;2023-06-10T08:50:02;29.40;91.20
23540;DHT22;11947;50.810;4.394;2023-06-10T08:52:36;29.60;92.10
23540;DHT22;11947;50.810;4.394;2023-06-10T08:55:08;29.50;90.60
23540;DHT22;11947;50.810;4.394;2023-06-10T08:57:36;29.60;91.90
23540;DHT22;11947;50.810;4.394;2023-06-10T09:00:02;29.90;92.40
23540;DHT22;11947;50.810;4.394;2023-06-10T09:02:28;30.10;90.20
23540;DHT22;11947;50.810;4.394;2023-06-10T09:04:56;30.10;90.00
23540;DHT22;11947;50.810;4.394;2023-06-10T09:07:23;30.10;91.00
23540;DHT22;11947;50.810;4.394;2023-06-10T09:09:49;30.30;90.70
23540;DHT22;11947;50.810;4.394;2023-06-10T09:12:15;30.50;90.70
23540;DHT22;11947;50.810;4.394;2023-06-10T09:14:42;30.30;89.10
23540;DHT22;11947;50.810;4.394;2023-06-10T09:17:08;30.10;89.70
23540;DHT22;11947;50.810;4.394;2023-06-10T09:19:35;30.10;90.20
23540;DHT22;11947;50.810;4.394;2023-06-10T09:22:01;30.30;89.90
23540;DHT22;11947;50.810;4.394;2023-06-10T09:24:27;30.40;90.00
23540;DHT22;11947;50.810;4.394;2023-06-10T09:27:04;30.50;90.20
23540;DHT22;11947;50.810;4.394;2023-06-10T09:29:43;30.80;90.60
23540;DHT22;11947;50.810;4.394;2023-06-10T09:32:10;31.00;89.80
23540;DHT22;11947;50.810;4.394;2023-06-10T09:34:36;31.20;89.30
23540;DHT22;11947;50.810;4.394;2023-06-10T09:37:02;31.50;88.80
23540;DHT22;11947;50.810;4.394;2023-06-10T09:39:27;31.60;86.50
23540;DHT22;11947;50.810;4.394;2023-06-10T09:41:53;31.60;86.00
23540;DHT22;11947;50.810;4.394;2023-06-10T09:44:20;31.70;84.60
23540;DHT22;11947;50.810;4.394;2023-06-10T09:46:48;31.90;87.40
23540;DHT22;11947;50.810;4.394;2023-06-10T09:49:14;32.40;89.50
23540;DHT22;11947;50.810;4.394;2023-06-10T09:51:53;32.50;82.50
23540;DHT22;11947;50.810;4.394;2023-06-10T09:54:19;32.40;82.30
23540;DHT22;11947;50.810;4.394;2023-06-10T09:56:51;32.50;86.80
23540;DHT22;11947;50.810;4.394;2023-06-10T09:59:28;32.60;80.20
23540;DHT22;11947;50.810;4.394;2023-06-10T10:01:55;32.80;81.70
23540;DHT22;11947;50.810;4.394;2023-06-10T10:04:25;32.90;79.10
23540;DHT22;11947;50.810;4.394;2023-06-10T10:06:51;33.20;81.20
23540;DHT22;11947;50.810;4.394;2023-06-10T10:09:16;33.50;80.20
23540;DHT22;11947;50.810;4.394;2023-06-10T10:11:44;33.40;76.60
23540;DHT22;11947;50.810;4.394;2023-06-10T10:14:10;33.20;76.40
23540;DHT22;11947;50.810;4.394;2023-06-10T10:16:37;33.30;77.00
23540;DHT22;11947;50.810;4.394;2023-06-10T10:19:18;34.00;73.50
23540;DHT22;11947;50.810;4.394;2023-06-10T10:21:52;34.80;78.50
23540;DHT22;11947;50.810;4.394;2023-06-10T10:24:21;35.50;72.60
23540;DHT22;11947;50.810;4.394;2023-06-10T10:26:48;36.30;72.70
23540;DHT22;11947;50.810;4.394;2023-06-10T10:31:50;38.00;70.50
23540;DHT22;11947;50.810;4.394;2023-06-10T10:34:21;39.00;62.20
23540;DHT22;11947;50.810;4.394;2023-06-10T10:36:49;38.90;64.90
23540;DHT22;11947;50.810;4.394;2023-06-10T10:39:15;39.60;64.20
23540;DHT22;11947;50.810;4.394;2023-06-10T10:41:42;39.80;60.80
23540;DHT22;11947;50.810;4.394;2023-06-10T10:44:08;39.90;59.80
23540;DHT22;11947;50.810;4.394;2023-06-10T10:46:49;40.00;59.80
23540;DHT22;11947;50.810;4.394;2023-06-10T10:49:15;41.10;58.10
23540;DHT22;11947;50.810;4.394;2023-06-10T10:52:00;41.00;56.60
23540;DHT22;11947;50.810;4.394;2023-06-10T10:54:33;41.30;58.10
23540;DHT22;11947;50.810;4.394;2023-06-10T10:57:15;41.20;55.60
23540;DHT22;11947;50.810;4.394;2023-06-10T10:59:58;39.60;55.60
23540;DHT22;11947;50.810;4.394;2023-06-10T11:02:43;39.60;57.50
23540;DHT22;11947;50.810;4.394;2023-06-10T11:05:10;40.50;55.20
23540;DHT22;11947;50.810;4.394;2023-06-10T11:07:36;40.00;54.20
23540;DHT22;11947;50.810;4.394;2023-06-10T11:10:12;39.70;57.30
23540;DHT22;11947;50.810;4.394;2023-06-10T11:12:51;41.50;57.50
23540;DHT22;11947;50.810;4.394;2023-06-10T11:15:26;41.00;55.60
23540;DHT22;11947;50.810;4.394;2023-06-10T11:18:14;41.50;54.20
23540;DHT22;11947;50.810;4.394;2023-06-10T11:28:40;44.00;51.70
23540;DHT22;11947;50.810;4.394;2023-06-10T11:31:06;43.00;49.70
23540;DHT22;11947;50.810;4.394;2023-06-10T11:33:32;42.80;50.40
23540;DHT22;11947;50.810;4.394;2023-06-10T11:35:58;43.10;49.60
23540;DHT22;11947;50.810;4.394;2023-06-10T11:38:24;43.40;50.60
23540;DHT22;11947;50.810;4.394;2023-06-10T11:40:51;44.50;50.60
23540;DHT22;11947;50.810;4.394;2023-06-10T11:43:17;46.00;49.60
23540;DHT22;11947;50.810;4.394;2023-06-10T11:45:44;46.20;48.10
23540;DHT22;11947;50.810;4.394;2023-06-10T11:48:10;45.50;48.30
23540;DHT22;11947;50.810;4.394;2023-06-10T11:50:36;45.50;48.20
23540;DHT22;11947;50.810;4.394;2023-06-10T11:53:03;44.40;46.10
23540;DHT22;11947;50.810;4.394;2023-06-10T11:55:45;44.20;50.00
23540;DHT22;11947;50.810;4.394;2023-06-10T11:58:17;44.70;47.60
23540;DHT22;11947;50.810;4.394;2023-06-10T12:00:53;45.50;47.60
23540;DHT22;11947;50.810;4.394;2023-06-10T12:03:20;46.40;47.50
23540;DHT22;11947;50.810;4.394;2023-06-10T12:06:03;47.50;47.40
23540;DHT22;11947;50.810;4.394;2023-06-10T12:08:29;47.00;46.10
23540;DHT22;11947;50.810;4.394;2023-06-10T12:10:56;45.30;47.60
23540;DHT22;11947;50.810;4.394;2023-06-10T12:13:22;44.80;50.20
23540;DHT22;11947;50.810;4.394;2023-06-10T12:15:49;46.00;47.50
23540;DHT22;11947;50.810;4.394;2023-06-10T12:18:22;45.60;46.80
23540;DHT22;11947;50.810;4.394;2023-06-10T12:20:49;46.50;47.40
23540;DHT22;11947;50.810;4.394;2023-06-10T12:23:16;45.90;45.70
23540;DHT22;11947;50.810;4.394;2023-06-10T12:25:53;45.30;47.10
23540;DHT22;11947;50.810;4.394;2023-06-10T12:28:26;45.30;46.00
23540;DHT22;11947;50.810;4.394;2023-06-10T12:31:06;45.00;46.80
23540;DHT22;11947;50.810;4.394;2023-06-10T12:33:32;44.30;47.80
23540;DHT22;11947;50.810;4.394;2023-06-10T12:35:57;44.80;48.10
23540;DHT22;11947;50.810;4.394;2023-06-10T12:38:26;45.00;46.60
23540;DHT22;11947;50.810;4.394;2023-06-10T12:40:53;45.30;48.30
23540;DHT22;11947;50.810;4.394;2023-06-10T12:43:20;46.50;47.80
23540;DHT22;11947;50.810;4.394;2023-06-10T12:45:46;46.10;46.30
23540;DHT22;11947;50.810;4.394;2023-06-10T12:50:51;46.20;47.00
23540;DHT22;11947;50.810;4.394;2023-06-10T12:53:18;46.30;45.60
23540;DHT22;11947;50.810;4.394;2023-06-10T12:55:45;45.40;46.10
23540;DHT22;11947;50.810;4.394;2023-06-10T12:58:11;45.30;46.60
23540;DHT22;11947;50.810;4.394;2023-06-10T13:00:37;44.70;47.10
23540;DHT22;11947;50.810;4.394;2023-06-10T13:03:03;43.60;48.10
23540;DHT22;11947;50.810;4.394;2023-06-10T13:05:31;44.60;50.20
23540;DHT22;11947;50.810;4.394;2023-06-10T13:07:58;45.80;47.00
23540;DHT22;11947;50.810;4.394;2023-06-10T13:10:23;46.10;46.40
23540;DHT22;11947;50.810;4.394;2023-06-10T13:12:51;46.30;45.40
23540;DHT22;11947;50.810;4.394;2023-06-10T13:15:17;45.10;46.90
23540;DHT22;11947;50.810;4.394;2023-06-10T13:17:44;44.00;46.70
23540;DHT22;11947;50.810;4.394;2023-06-10T13:20:16;43.00;47.80
23540;DHT22;11947;50.810;4.394;2023-06-10T13:22:42;40.70;49.60
23540;DHT22;11947;50.810;4.394;2023-06-10T13:25:08;40.20;52.20
23540;DHT22;11947;50.810;4.394;2023-06-10T13:27:35;40.70;51.90
23540;DHT22;11947;50.810;4.394;2023-06-10T13:30:03;40.90;49.90
23540;DHT22;11947;50.810;4.394;2023-06-10T13:32:29;41.10;49.20
23540;DHT22;11947;50.810;4.394;2023-06-10T13:34:55;42.00;49.00
23540;DHT22;11947;50.810;4.394;2023-06-10T13:37:22;41.90;48.50
23540;DHT22;11947;50.810;4.394;2023-06-10T13:39:48;42.30;49.60
23540;DHT22;11947;50.810;4.394;2023-06-10T13:42:19;42.50;48.80
23540;DHT22;11947;50.810;4.394;2023-06-10T13:44:45;43.40;49.00
23540;DHT22;11947;50.810;4.394;2023-06-10T13:47:11;43.50;48.60
23540;DHT22;11947;50.810;4.394;2023-06-10T13:49:36;43.90;48.80
23540;DHT22;11947;50.810;4.394;2023-06-10T13:52:03;44.00;46.80
23540;DHT22;11947;50.810;4.394;2023-06-10T13:54:29;42.10;48.70
23540;DHT22;11947;50.810;4.394;2023-06-10T13:56:54;42.40;48.10
23540;DHT22;11947;50.810;4.394;2023-06-10T13:59:20;43.40;48.00
23540;DHT22;11947;50.810;4.394;2023-06-10T14:01:47;45.00;46.70
23540;DHT22;11947;50.810;4.394;2023-06-10T14:04:13;45.00;45.00
23540;DHT22;11947;50.810;4.394;2023-06-10T14:06:38;44.40;46.40
23540;DHT22;11947;50.810;4.394;2023-06-10T14:09:04;44.20;47.50
23540;DHT22;11947;50.810;4.394;2023-06-10T14:11:30;45.30;45.60
23540;DHT22;11947;50.810;4.394;2023-06-10T14:13:57;44.80;45.40
23540;DHT22;11947;50.810;4.394;2023-06-10T14:16:23;44.20;47.20
23540;DHT22;11947;50.810;4.394;2023-06-10T14:18:50;42.90;46.90
23540;DHT22;11947;50.810;4.394;2023-06-10T14:21:18;40.50;49.80
23540;DHT22;11947;50.810;4.394;2023-06-10T14:23:44;39.30;51.50
23540;DHT22;11947;50.810;4.394;2023-06-10T14:26:14;38.30;52.10
23540;DHT22;11947;50.810;4.394;2023-06-10T14:28:40;37.30;53.80
23540;DHT22;11947;50.810;4.394;2023-06-10T14:31:05;36.60;53.60
23540;DHT22;11947;50.810;4.394;2023-06-10T14:33:31;35.80;54.50
23540;DHT22;11947;50.810;4.394;2023-06-10T14:35:57;35.30;56.10
23540;DHT22;11947;50.810;4.394;2023-06-10T14:38:23;34.50;56.20
23540;DHT22;11947;50.810;4.394;2023-06-10T14:40:48;34.20;58.60
23540;DHT22;11947;50.810;4.394;2023-06-10T14:43:14;34.20;58.60
23540;DHT22;11947;50.810;4.394;2023-06-10T14:45:40;34.10;57.70
23540;DHT22;11947;50.810;4.394;2023-06-10T14:48:06;33.80;58.60
23540;DHT22;11947;50.810;4.394;2023-06-10T14:50:37;33.40;59.30
23540;DHT22;11947;50.810;4.394;2023-06-10T14:53:02;33.10;58.50
23540;DHT22;11947;50.810;4.394;2023-06-10T14:55:28;32.90;58.20
23540;DHT22;11947;50.810;4.394;2023-06-10T14:57:59;32.50;58.60
23540;DHT22;11947;50.810;4.394;2023-06-10T15:00:25;32.60;59.90
23540;DHT22;11947;50.810;4.394;2023-06-10T15:02:51;32.30;59.50
23540;DHT22;11947;50.810;4.394;2023-06-10T15:05:18;32.20;60.30
23540;DHT22;11947;50.810;4.394;2023-06-10T15:07:45;32.00;59.00
23540;DHT22;11947;50.810;4.394;2023-06-10T15:10:11;31.80;60.90
23540;DHT22;11947;50.810;4.394;2023-06-10T15:12:36;31.80;60.70
23540;DHT22;11947;50.810;4.394;2023-06-10T15:15:03;31.80;61.70
23540;DHT22;11947;50.810;4.394;2023-06-10T15:17:29;31.80;62.50
23540;DHT22;11947;50.810;4.394;2023-06-10T15:19:55;31.60;62.20
23540;DHT22;11947;50.810;4.394;2023-06-10T15:22:22;31.40;63.10
23540;DHT22;11947;50.810;4.394;2023-06-10T15:24:47;31.50;63.60
23540;DHT22;11947;50.810;4.394;2023-06-10T15:27:13;31.50;63.30
23540;DHT22;11947;50.810;4.394;2023-06-10T15:29:39;31.30;62.60
23540;DHT22;11947;50.810;4.394;2023-06-10T15:32:05;31.30;65.00
23540;DHT22;11947;50.810;4.394;2023-06-10T15:34:31;31.50;64.20
23540;DHT22;11947;50.810;4.394;2023-06-10T15:36:56;31.40;63.10
23540;DHT22;11947;50.810;4.394;2023-06-10T15:39:22;31.30;65.10
23540;DHT22;11947;50.810;4.394;2023-06-10T15:41:49;31.30;64.40
23540;DHT22;11947;50.810;4.394;2023-06-10T15:44:15;31.40;65.80
23540;DHT22;11947;50.810;4.394;2023-06-10T15:46:41;31.30;63.50
23540;DHT22;11947;50.810;4.394;2023-06-10T15:49:07;31.10;63.40
23540;DHT22;11947;50.810;4.394;2023-06-10T15:51:32;31.00;64.20